createdAt,value
2018-05-23T00:02:20.582Z,48.60
2018-05-23T00:04:48.130Z,49.20
2018-05-23T00:07:15.830Z,47.00
2018-05-23T00:09:43.845Z,47.00
2018-05-23T00:12:11.419Z,47.80
2018-05-23T00:14:38.976Z,51.03
2018-05-23T00:17:06.534Z,51.40
2018-05-23T00:19:34.045Z,41.93
2018-05-23T00:22:01.593Z,37.23
2018-05-23T00:24:29.151Z,35.57
2018-05-23T00:26:56.752Z,32.80
2018-05-23T00:29:24.516Z,34.90
2018-05-23T00:31:52.170Z,34.70
2018-05-23T00:34:19.740Z,43.40
2018-05-23T00:36:47.292Z,40.97
2018-05-23T00:39:15.657Z,39.67
2018-05-23T00:41:43.394Z,37.13
2018-05-23T00:44:11.022Z,37.37
2018-05-23T00:46:39.363Z,38.37
2018-05-23T00:49:06.937Z,35.83
2018-05-23T00:51:34.811Z,36.03
2018-05-23T00:54:02.666Z,40.13
2018-05-23T00:56:30.348Z,40.23
2018-05-23T00:58:58.271Z,47.57
2018-05-23T01:01:25.810Z,49.07
2018-05-23T01:03:53.365Z,48.97
2018-05-23T01:06:20.919Z,43.97
2018-05-23T01:08:48.478Z,53.13
2018-05-23T01:11:16.026Z,56.87
2018-05-23T01:13:43.637Z,55.40
2018-05-23T01:16:11.336Z,57.20
2018-05-23T01:18:39.082Z,53.60
2018-05-23T01:21:06.603Z,56.43
2018-05-23T01:23:34.177Z,51.50
2018-05-23T01:26:03.847Z,57.27
2018-05-23T01:28:31.453Z,60.50
2018-05-23T01:30:59.011Z,55.20
2018-05-23T01:33:26.594Z,54.53
2018-05-23T01:35:55.247Z,59.77
2018-05-23T01:38:22.944Z,59.47
2018-05-23T01:40:51.447Z,53.93
2018-05-23T01:43:19.498Z,56.57
2018-05-23T01:45:47.038Z,53.83
2018-05-23T01:48:14.574Z,54.87
2018-05-23T01:50:49.142Z,58.70
2018-05-23T01:53:16.761Z,55.97
2018-05-23T01:55:44.334Z,56.43
2018-05-23T01:58:11.939Z,57.53
2018-05-23T02:00:39.516Z,51.67
2018-05-23T02:03:07.148Z,52.93
2018-05-23T02:05:34.704Z,60.60
2018-05-23T02:08:02.276Z,60.83
2018-05-23T02:10:29.807Z,62.07
2018-05-23T02:12:57.407Z,55.00
2018-05-23T02:15:24.996Z,59.33
2018-05-23T02:17:52.517Z,65.03
2018-05-23T02:20:20.123Z,64.63
2018-05-23T02:22:47.689Z,61.13
2018-05-23T02:25:15.223Z,65.10
2018-05-23T02:27:42.765Z,64.90
2018-05-23T02:30:10.299Z,63.63
2018-05-23T02:32:37.939Z,63.63
2018-05-23T02:35:05.555Z,60.37
2018-05-23T02:37:33.720Z,63.87
2018-05-23T02:40:01.246Z,63.83
2018-05-23T02:42:28.821Z,61.97
2018-05-23T02:44:56.413Z,62.63
2018-05-23T02:47:23.987Z,61.37
2018-05-23T02:49:52.497Z,66.20
2018-05-23T02:52:20.357Z,62.30
2018-05-23T02:54:47.984Z,65.87
2018-05-23T02:57:15.588Z,59.03
2018-05-23T02:59:43.203Z,59.07
2018-05-23T03:02:10.716Z,63.13
2018-05-23T03:04:38.263Z,61.47
2018-05-23T03:07:05.822Z,59.27
2018-05-23T03:09:33.356Z,62.77
2018-05-23T03:12:00.889Z,61.60
2018-05-23T03:14:28.524Z,54.63
2018-05-23T03:16:56.077Z,51.87
2018-05-23T03:19:23.759Z,48.93
2018-05-23T03:21:51.740Z,47.87
2018-05-23T03:24:19.356Z,45.73
2018-05-23T03:26:46.993Z,46.47
2018-05-23T03:29:14.453Z,45.53
2018-05-23T03:31:42.089Z,45.90
2018-05-23T03:34:09.624Z,43.00
2018-05-23T03:36:37.192Z,43.83
2018-05-23T03:39:06.630Z,42.80
2018-05-23T03:41:34.241Z,44.83
2018-05-23T03:44:01.836Z,43.97
2018-05-23T03:46:29.418Z,47.63
2018-05-23T03:48:56.974Z,49.27
2018-05-23T03:51:24.506Z,41.40
2018-05-23T03:53:52.016Z,42.37
2018-05-23T03:56:19.562Z,49.50
2018-05-23T03:58:47.107Z,51.53
2018-05-23T04:01:26.529Z,54.07
2018-05-23T04:04:05.966Z,51.37
2018-05-23T04:06:45.202Z,52.23
2018-05-23T04:09:12.716Z,55.00
2018-05-23T04:11:40.247Z,57.63
2018-05-23T04:14:07.787Z,54.73
2018-05-23T04:16:35.320Z,52.43
2018-05-23T04:19:02.830Z,57.03
2018-05-23T04:21:30.363Z,53.33
2018-05-23T04:23:57.901Z,53.60
2018-05-23T04:26:25.514Z,59.83
2018-05-23T04:28:53.064Z,63.70
2018-05-23T04:31:20.608Z,54.40
2018-05-23T04:33:48.240Z,51.00
2018-05-23T04:36:16.707Z,49.10
2018-05-23T04:38:44.338Z,48.13
2018-05-23T04:41:11.878Z,47.80
2018-05-23T04:43:39.392Z,44.73
2018-05-23T04:46:06.935Z,47.73
2018-05-23T04:48:34.679Z,48.93
2018-05-23T04:51:02.376Z,53.23
2018-05-23T04:53:29.926Z,50.80
2018-05-23T04:55:57.587Z,49.60
2018-05-23T04:58:25.126Z,51.47
2018-05-23T05:00:52.650Z,56.73
2018-05-23T05:03:20.973Z,59.17
2018-05-23T05:05:48.538Z,50.33
2018-05-23T05:08:17.311Z,53.97
2018-05-23T05:10:45.071Z,50.30
2018-05-23T05:13:12.672Z,50.83
2018-05-23T05:15:40.182Z,53.87
2018-05-23T05:18:07.719Z,48.83
2018-05-23T05:20:35.242Z,53.67
2018-05-23T05:23:05.139Z,50.40
2018-05-23T05:25:32.721Z,52.23
2018-05-23T05:28:00.251Z,51.13
2018-05-23T05:30:28.240Z,46.97
2018-05-23T05:32:55.806Z,47.43
2018-05-23T05:35:23.320Z,48.97
2018-05-23T05:46:30.576Z,47.50
2018-05-23T05:48:58.074Z,50.43
2018-05-23T05:51:25.558Z,46.10
2018-05-23T05:53:53.088Z,45.87
2018-05-23T05:56:20.573Z,43.57
2018-05-23T05:58:48.070Z,43.03
2018-05-23T06:01:16.462Z,46.20
2018-05-23T06:03:43.950Z,44.97
2018-05-23T06:06:11.432Z,47.07
2018-05-23T06:08:38.920Z,44.20
2018-05-23T06:11:06.401Z,42.10
2018-05-23T06:13:34.450Z,42.07
2018-05-23T06:16:01.931Z,43.23
2018-05-23T06:18:29.443Z,40.13
2018-05-23T06:20:56.919Z,40.60
2018-05-23T06:23:24.406Z,43.23
2018-05-23T06:25:51.878Z,42.10
2018-05-23T06:28:19.374Z,41.20
2018-05-23T06:30:46.854Z,38.90
2018-05-23T06:33:14.337Z,40.30
2018-05-23T06:35:41.810Z,42.00
2018-05-23T06:38:09.297Z,43.87
2018-05-23T06:40:36.758Z,39.67
2018-05-23T06:43:04.245Z,45.13
2018-05-23T06:45:31.722Z,51.77
2018-05-23T06:47:59.223Z,46.73
2018-05-23T06:50:26.690Z,45.00
2018-05-23T06:52:54.181Z,46.37
2018-05-23T06:55:21.646Z,50.60
2018-05-23T06:57:49.133Z,48.07
2018-05-23T07:00:16.612Z,46.03
2018-05-23T07:02:44.105Z,50.90
2018-05-23T07:05:11.583Z,50.13
2018-05-23T07:07:39.086Z,49.07
2018-05-23T07:10:06.558Z,47.43
2018-05-23T07:12:34.821Z,50.23
2018-05-23T07:15:02.311Z,47.23
2018-05-23T07:17:29.804Z,50.33
2018-05-23T07:19:57.298Z,49.80
2018-05-23T07:22:24.827Z,50.60
2018-05-23T07:24:52.290Z,45.63
2018-05-23T07:27:19.769Z,50.63
2018-05-23T07:29:47.254Z,54.90
2018-05-23T07:32:14.727Z,54.50
2018-05-23T07:34:42.218Z,56.93
2018-05-23T07:37:09.705Z,55.67
2018-05-23T07:39:37.189Z,60.17
2018-05-23T07:42:04.662Z,60.00
2018-05-23T07:44:32.155Z,58.80
2018-05-23T07:46:59.629Z,59.70
2018-05-23T07:49:27.123Z,59.93
2018-05-23T07:51:54.601Z,57.43
2018-05-23T07:54:22.089Z,63.00
2018-05-23T07:56:49.561Z,58.23
2018-05-23T07:59:17.050Z,59.93
2018-05-23T08:01:44.526Z,58.83
2018-05-23T08:04:12.014Z,51.30
2018-05-23T08:06:39.488Z,56.13
2018-05-23T08:09:06.982Z,60.30
2018-05-23T08:11:34.452Z,62.73
2018-05-23T08:14:01.954Z,53.83
2018-05-23T08:16:29.443Z,50.70
2018-05-23T08:18:56.934Z,55.27
2018-05-23T08:21:24.397Z,52.70
2018-05-23T08:23:51.886Z,53.20
2018-05-23T08:26:19.350Z,51.67
2018-05-23T08:28:46.845Z,49.53
2018-05-23T08:31:14.313Z,46.57
2018-05-23T08:33:41.792Z,51.33
2018-05-23T08:36:09.294Z,51.10
2018-05-23T08:38:36.757Z,48.97
2018-05-23T08:41:04.271Z,43.50
2018-05-23T08:43:31.750Z,47.73
2018-05-23T08:45:59.334Z,40.27
2018-05-23T08:48:26.734Z,46.33
2018-05-23T08:50:54.257Z,42.20
2018-05-23T08:53:21.732Z,41.90
2018-05-23T08:55:49.231Z,43.60
2018-05-23T08:58:16.697Z,37.90
2018-05-23T09:00:44.185Z,41.90
2018-05-23T09:03:11.658Z,41.00
2018-05-23T09:05:39.162Z,41.27
2018-05-23T09:08:06.654Z,45.70
2018-05-23T09:10:34.142Z,41.00
2018-05-23T09:13:01.628Z,42.43
2018-05-23T09:15:29.110Z,41.03
2018-05-23T09:17:56.587Z,42.60
2018-05-23T09:20:24.073Z,40.13
2018-05-23T09:22:51.550Z,35.33
2018-05-23T09:25:19.059Z,33.67
2018-05-23T09:27:46.518Z,35.83
2018-05-23T09:30:14.007Z,33.33
2018-05-23T09:32:41.482Z,33.90
2018-05-23T09:35:08.978Z,33.00
2018-05-23T09:37:36.442Z,38.00
2018-05-23T09:40:04.541Z,35.33
2018-05-23T09:42:32.011Z,33.13
2018-05-23T09:44:59.508Z,37.33
2018-05-23T09:47:26.993Z,37.70
2018-05-23T09:49:54.477Z,36.40
2018-05-23T09:52:21.942Z,33.07
2018-05-23T09:54:49.427Z,35.40
2018-05-23T09:57:16.898Z,35.13
2018-05-23T09:59:44.372Z,32.50
2018-05-23T10:02:11.870Z,31.57
2018-05-23T10:04:39.346Z,24.57
2018-05-23T10:07:06.846Z,19.53
2018-05-23T10:09:34.314Z,19.83
2018-05-23T10:12:01.811Z,18.20
2018-05-23T10:14:29.278Z,11.70
2018-05-23T10:16:56.774Z,14.53
2018-05-23T10:19:24.256Z,12.93
2018-05-23T10:21:51.745Z,14.07
2018-05-23T10:24:19.213Z,16.60
2018-05-23T10:26:46.702Z,17.50
2018-05-23T10:29:14.177Z,16.37
2018-05-23T10:31:41.667Z,18.83
2018-05-23T10:34:09.134Z,18.87
2018-05-23T10:36:36.625Z,18.27
2018-05-23T10:39:04.110Z,19.63
2018-05-23T10:41:31.618Z,17.00
2018-05-23T10:43:59.095Z,17.27
2018-05-23T10:46:26.587Z,13.70
2018-05-23T10:48:54.059Z,10.60
2018-05-23T10:51:21.550Z,9.17
2018-05-23T10:53:49.011Z,9.20
2018-05-23T10:56:16.518Z,10.33
2018-05-23T10:58:43.983Z,8.60
2018-05-23T11:01:11.522Z,7.70
2018-05-23T11:03:39.058Z,7.73
2018-05-23T11:06:06.596Z,7.03
2018-05-23T11:08:34.073Z,9.23
2018-05-23T11:11:01.574Z,8.17
2018-05-23T11:13:29.088Z,8.13
2018-05-23T11:15:56.609Z,8.60
2018-05-23T11:18:24.127Z,8.27
2018-05-23T11:20:51.610Z,8.73
2018-05-23T11:23:19.175Z,9.10
2018-05-23T11:25:46.591Z,10.43
2018-05-23T11:28:14.078Z,8.50
2018-05-23T11:30:41.547Z,9.07
2018-05-23T11:33:09.038Z,8.20
2018-05-23T11:35:36.503Z,9.10
2018-05-23T11:38:04.007Z,10.87
2018-05-23T11:40:31.490Z,10.37
2018-05-23T11:42:58.986Z,11.57
2018-05-23T11:45:26.461Z,10.00
2018-05-23T11:47:53.938Z,8.73
2018-05-23T11:50:21.451Z,8.83
2018-05-23T11:52:48.949Z,7.83
2018-05-23T11:55:16.407Z,6.57
2018-05-23T11:57:43.898Z,6.40
2018-05-23T12:00:11.401Z,8.17
2018-05-23T12:02:38.873Z,7.00
2018-05-23T12:05:06.337Z,5.70
2018-05-23T12:07:33.843Z,5.73
2018-05-23T12:10:01.310Z,5.43
2018-05-23T12:12:28.793Z,4.50
2018-05-23T12:14:56.278Z,4.50
2018-05-23T12:17:23.762Z,6.03
2018-05-23T12:19:51.233Z,4.40
2018-05-23T12:22:18.729Z,5.37
2018-05-23T13:46:43.229Z,6.37
2018-05-23T13:49:10.723Z,7.60
2018-05-23T13:51:38.190Z,6.37
2018-05-23T13:54:05.684Z,7.80
2018-05-23T13:56:33.168Z,5.90
2018-05-23T13:59:00.682Z,5.55
2018-05-23T14:01:28.151Z,5.30
2018-05-23T14:03:55.634Z,7.93
2018-05-23T14:06:25.099Z,6.03
2018-05-23T14:08:52.590Z,6.05
2018-05-23T14:11:21.077Z,6.00
